Time;durP1;ratioP1;P1;durP2;ratioP2;P2;SDS_P1;SDS_P2;PMS_P1;PMS_P2;Temp;Humidity;BMP_temperature;BMP_pressure;BME280_temperature;BME280_humidity;BME280_pressure;Samples;Min_cycle;Max_cycle;Signal;HPM_P1;HPM_P2
2023/02/10 00:10:00;;;;;;;1.97;0.60;;;-8.10;93.80;;;;;;20906818;28;20037;-61
2023/02/10 00:20:02;;;;;;;2.27;0.67;;;-7.90;93.60;;;;;;20906597;28;20091;-61
2023/02/10 00:30:04;;;;;;;1.70;0.50;;;-7.80;94.30;;;;;;20906857;28;20087;-60
2023/02/10 00:40:06;;;;;;;3.17;0.70;;;-7.90;94.60;;;;;;20905002;28;20033;-61
2023/02/10 00:50:07;;;;;;;2.60;0.80;;;-8.00;94.80;;;;;;20903571;28;20032;-61
2023/02/10 01:00:09;;;;;;;1.97;0.90;;;-8.00;93.70;;;;;;20903259;28;20537;-62
2023/02/10 01:10:11;;;;;;;2.80;1.00;;;-7.80;94.80;;;;;;20905249;28;20083;-61
2023/02/10 01:20:13;;;;;;;4.80;1.10;;;-7.70;94.30;;;;;;20902556;28;20497;-62
2023/02/10 01:30:15;;;;;;;3.38;1.13;;;-7.40;93.20;;;;;;20903369;28;20025;-61
2023/02/10 01:40:17;;;;;;;3.27;1.10;;;-7.00;93.20;;;;;;20901487;28;20040;-60
2023/02/10 01:50:23;;;;;;;3.15;1.20;;;-7.10;92.10;;;;;;20901434;28;20033;-60
2023/02/10 02:00:25;;;;;;;2.97;1.07;;;-7.10;93.60;;;;;;20915996;28;20477;-61
2023/02/10 02:10:38;;;;;;;3.20;1.20;;;-7.40;94.40;;;;;;20898495;28;20040;-62
2023/02/10 02:20:49;;;;;;;3.30;1.20;;;-7.40;95.30;;;;;;20916167;28;20028;-60
2023/02/10 02:31:11;;;;;;;2.50;0.90;;;-7.60;96.20;;;;;;20911191;28;20098;-60
2023/02/10 02:41:23;;;;;;;2.40;1.10;;;-7.60;96.00;;;;;;20916785;28;20037;-60
2023/02/10 02:51:28;;;;;;;2.63;1.10;;;-7.50;95.90;;;;;;20895987;28;20036;-61
2023/02/10 03:01:32;;;;;;;2.75;1.38;;;-7.30;95.00;;;;;;20911448;28;20029;-60
2023/02/10 03:11:34;;;;;;;2.95;1.10;;;-7.00;94.30;;;;;;20909541;28;20053;-61
2023/02/10 03:21:35;;;;;;;4.18;1.13;;;-7.00;94.80;;;;;;20910136;28;20025;-60
2023/02/10 03:31:37;;;;;;;4.28;1.77;;;-7.00;95.80;;;;;;20910592;28;20025;-62
2023/02/10 03:41:39;;;;;;;4.85;2.25;;;-6.50;92.80;;;;;;20909802;28;20033;-62
2023/02/10 03:51:40;;;;;;;5.50;2.30;;;-6.00;91.30;;;;;;20908979;28;20429;-62
2023/02/10 04:01:42;;;;;;;4.72;2.05;;;-5.60;92.10;;;;;;20908515;28;20033;-61
2023/02/10 04:11:43;;;;;;;7.55;2.30;;;-6.10;94.70;;;;;;20907104;28;20501;-61
2023/02/10 04:21:45;;;;;;;4.40;2.08;;;-6.20;92.80;;;;;;20906398;28;20098;-61
2023/02/10 04:31:47;;;;;;;3.55;1.50;;;-6.30;92.80;;;;;;20904473;28;20470;-60
2023/02/10 04:41:48;;;;;;;5.55;2.13;;;-6.00;91.30;;;;;;20904999;28;20083;-59
2023/02/10 04:51:50;;;;;;;3.25;1.67;;;-4.80;89.50;;;;;;20904210;28;20021;-61
2023/02/10 05:01:51;;;;;;;3.25;1.33;;;-4.00;85.40;;;;;;20905008;28;20390;-63
2023/02/10 05:11:53;;;;;;;2.63;1.40;;;-3.50;83.00;;;;;;20902958;28;20052;-60
2023/02/10 05:21:55;;;;;;;3.10;1.20;;;-3.30;83.30;;;;;;20902534;28;20371;-59
2023/02/10 05:31:56;;;;;;;2.47;0.98;;;-3.40;82.10;;;;;;20901593;28;20508;-61
2023/02/10 05:41:59;;;;;;;2.45;1.27;;;-3.10;79.90;;;;;;20902696;28;20417;-62
2023/02/10 05:52:00;;;;;;;1.50;0.85;;;-2.80;79.10;;;;;;20901179;28;20432;-62
2023/02/10 06:02:02;;;;;;;2.17;0.98;;;-2.70;76.80;;;;;;20901829;28;20029;-61
2023/02/10 06:12:05;;;;;;;3.05;0.98;;;-2.60;77.00;;;;;;20898319;28;20067;-61
2023/02/10 06:22:11;;;;;;;3.00;1.10;;;-2.90;78.30;;;;;;20899938;28;20037;-60
2023/02/10 06:32:13;;;;;;;2.90;1.05;;;-3.30;81.00;;;;;;20900888;28;20037;-59
2023/02/10 06:42:14;;;;;;;2.85;1.20;;;-3.40;79.70;;;;;;20898143;28;20033;-58
2023/02/10 06:52:16;;;;;;;1.58;0.80;;;-3.10;81.50;;;;;;20913544;28;20066;-61
2023/02/10 07:02:18;;;;;;;2.60;0.75;;;-3.80;84.80;;;;;;20913106;28;20385;-61
2023/02/10 07:12:20;;;;;;;1.50;0.80;;;-3.30;80.00;;;;;;20910479;28;20053;-61
2023/02/10 07:22:22;;;;;;;2.17;1.00;;;-3.00;81.20;;;;;;20911233;28;20025;-61
2023/02/10 07:32:24;;;;;;;2.85;1.02;;;-3.40;87.70;;;;;;20912022;28;20025;-62
2023/02/10 07:42:25;;;;;;;2.30;1.08;;;-3.80;89.70;;;;;;20906245;28;20032;-60
2023/02/10 07:52:45;;;;;;;4.18;1.52;;;-3.50;88.40;;;;;;20907198;28;20037;-61
2023/02/10 08:02:46;;;;;;;3.05;1.15;;;-2.50;90.60;;;;;;20908490;28;20486;-62
2023/02/10 08:12:48;;;;;;;3.80;1.85;;;-1.50;90.20;;;;;;20907251;28;20037;-58
2023/02/10 08:22:55;;;;;;;4.35;2.65;;;-0.30;84.20;;;;;;20906569;28;20374;-62
2023/02/10 08:32:57;;;;;;;4.38;2.60;;;0.80;83.90;;;;;;20903025;28;20033;-60
2023/02/10 08:42:59;;;;;;;5.47;3.05;;;1.60;80.80;;;;;;20903876;28;20032;-59
2023/02/10 08:53:00;;;;;;;4.53;2.70;;;2.20;78.70;;;;;;20904282;28;20033;-61
2023/02/10 09:03:02;;;;;;;5.25;2.80;;;2.80;76.50;;;;;;20902483;28;20063;-59
2023/02/10 09:13:04;;;;;;;5.55;2.95;;;3.30;77.10;;;;;;20902370;28;20044;-60
2023/02/10 09:23:05;;;;;;;6.47;3.00;;;4.00;75.50;;;;;;20902597;28;20095;-59
2023/02/10 09:33:07;;;;;;;4.88;2.80;;;4.40;73.40;;;;;;20901175;28;20099;-59
2023/02/10 09:43:15;;;;;;;5.82;2.95;;;4.80;72.70;;;;;;20901727;28;20124;-60
2023/02/10 09:53:24;;;;;;;4.30;2.45;;;5.10;70.60;;;;;;20898706;28;20036;-59
2023/02/10 10:03:38;;;;;;;4.60;2.88;;;5.80;68.30;;;;;;20898644;28;20401;-60
2023/02/10 10:13:40;;;;;;;4.93;2.72;;;6.20;67.80;;;;;;20898608;28;20033;-61
2023/02/10 10:23:47;;;;;;;5.68;3.25;;;6.30;68.20;;;;;;20914415;28;20059;-59
2023/02/10 10:34:07;;;;;;;6.85;3.67;;;6.80;69.20;;;;;;20911440;28;20381;-60
2023/02/10 10:44:12;;;;;;;6.57;2.95;;;6.70;68.50;;;;;;20913389;28;20032;-60
2023/02/10 10:54:20;;;;;;;5.55;3.20;;;7.10;65.30;;;;;;20913649;28;20029;-61
2023/02/10 11:04:24;;;;;;;7.35;3.97;;;7.10;65.20;;;;;;20912973;28;20060;-60
2023/02/10 11:14:28;;;;;;;4.80;2.90;;;7.10;65.80;;;;;;20911982;28;20055;-60
2023/02/10 11:24:32;;;;;;;4.65;2.97;;;7.60;64.20;;;;;;20911322;28;20025;-60
2023/02/10 11:34:45;;;;;;;3.55;2.20;;;7.80;64.70;;;;;;20908832;28;20029;-60
2023/02/10 11:45:00;;;;;;;6.10;3.67;;;7.70;62.50;;;;;;20907696;28;20025;-59
2023/02/10 11:55:02;;;;;;;5.47;3.67;;;8.20;63.10;;;;;;20906572;28;20033;-59
2023/02/10 12:05:42;;;;;;;7.70;4.05;;;8.00;64.20;;;;;;20908307;28;20394;-60
2023/02/10 12:16:17;;;;;;;6.45;4.00;;;7.80;64.00;;;;;;20907452;28;20025;-60
2023/02/10 12:26:26;;;;;;;10.55;4.72;;;7.80;60.80;;;;;;20906240;28;20478;-60
2023/02/10 12:36:52;;;;;;;8.63;4.90;;;7.80;63.90;;;;;;20903011;28;20481;-60
2023/02/10 12:47:23;;;;;;;9.30;5.35;;;7.70;64.70;;;;;;20905397;28;20029;-59
2023/02/10 12:57:47;;;;;;;12.23;6.13;;;7.50;63.70;;;;;;20902561;28;20024;-59
2023/02/10 13:07:57;;;;;;;11.55;6.45;;;7.10;63.60;;;;;;20902075;28;20162;-60
2023/02/10 13:17:59;;;;;;;14.10;8.33;;;6.90;65.00;;;;;;20903156;28;20147;-59
2023/02/10 13:28:37;;;;;;;14.40;7.82;;;6.90;63.60;;;;;;20903603;28;20053;-59
2023/02/10 13:38:39;;;;;;;10.00;5.40;;;6.60;66.60;;;;;;20791771;28;20049;-60
2023/02/10 13:48:44;;;;;;;12.88;6.00;;;6.40;63.50;;;;;;20809650;28;20045;-60
2023/02/10 13:58:48;;;;;;;9.82;5.80;;;5.90;64.60;;;;;;20824068;28;20556;-62
2023/02/10 14:08:51;;;;;;;9.63;5.25;;;5.00;65.40;;;;;;20845719;28;20068;-61
2023/02/10 14:19:05;;;;;;;8.60;4.13;;;4.30;64.60;;;;;;20916692;28;20029;-61
2023/02/10 14:29:12;;;;;;;6.78;3.85;;;3.60;64.60;;;;;;20912113;28;20059;-60
2023/02/10 14:39:15;;;;;;;7.40;4.22;;;3.30;65.70;;;;;;20912695;28;20432;-60
2023/02/10 14:49:20;;;;;;;9.05;4.75;;;2.70;64.70;;;;;;20910646;28;20044;-60
2023/02/10 14:59:26;;;;;;;10.15;4.90;;;2.50;66.70;;;;;;20913104;28;20082;-60
2023/02/10 15:09:33;;;;;;;12.43;5.72;;;2.20;67.70;;;;;;20908255;28;20440;-62
2023/02/10 15:19:35;;;;;;;10.43;5.35;;;1.80;70.50;;;;;;20912012;28;20025;-62
2023/02/10 15:29:37;;;;;;;11.35;5.32;;;1.30;72.30;;;;;;20910858;28;20029;-63
2023/02/10 15:39:39;;;;;;;10.52;5.15;;;0.80;73.00;;;;;;20910389;28;20037;-62
2023/02/10 15:49:41;;;;;;;15.32;5.40;;;0.10;80.90;;;;;;20909719;28;20028;-60
2023/02/10 15:59:44;;;;;;;8.88;4.88;;;-0.70;85.40;;;;;;20908713;28;20033;-63
2023/02/10 16:09:46;;;;;;;11.57;5.70;;;-1.40;88.90;;;;;;20907398;28;20052;-60
2023/02/10 16:19:48;;;;;;;10.60;4.90;;;-1.80;92.00;;;;;;20906995;28;20033;-63
2023/02/10 16:29:50;;;;;;;12.43;5.95;;;-2.10;91.10;;;;;;20906000;28;20032;-63
2023/02/10 16:39:52;;;;;;;17.92;8.05;;;-2.30;92.00;;;;;;20904602;28;20029;-60
2023/02/10 16:49:53;;;;;;;12.80;6.07;;;-2.70;93.20;;;;;;20904683;28;20029;-60
2023/02/10 16:59:56;;;;;;;8.55;4.30;;;-3.00;96.40;;;;;;20903934;28;20434;-60
2023/02/10 17:09:57;;;;;;;8.30;4.03;;;-3.10;94.60;;;;;;20904738;28;20491;-60
2023/02/10 17:19:59;;;;;;;9.52;4.28;;;-3.20;95.60;;;;;;20904383;28;20475;-60
2023/02/10 17:30:00;;;;;;;8.98;3.80;;;-3.40;96.00;;;;;;20901514;28;20029;-61
2023/02/10 17:40:45;;;;;;;9.32;4.13;;;-3.40;95.70;;;;;;20900851;28;20470;-61
2023/02/10 17:50:27;;;;;;;7.15;3.33;;;-3.60;97.20;;;;;;20902631;28;20106;-60
2023/02/10 18:00:29;;;;;;;6.15;2.80;;;-3.60;95.40;;;;;;20900944;28;20071;-61
2023/02/10 18:10:30;;;;;;;7.72;3.60;;;-3.50;95.10;;;;;;20900574;28;20044;-61
2023/02/10 18:20:33;;;;;;;7.13;3.60;;;-3.50;94.50;;;;;;20900655;28;20083;-61
2023/02/10 18:30:34;;;;;;;6.63;2.60;;;-3.40;94.30;;;;;;20899717;28;20032;-62
2023/02/10 18:40:40;;;;;;;5.10;2.60;;;-3.50;94.40;;;;;;20907123;28;20024;-62
2023/02/10 18:50:46;;;;;;;5.38;3.08;;;-3.70;94.70;;;;;;20914258;28;20040;-60
2023/02/10 19:00:49;;;;;;;4.97;2.42;;;-3.60;95.30;;;;;;20910961;28;20033;-61
2023/02/10 19:10:50;;;;;;;7.03;3.38;;;-3.70;94.60;;;;;;20913523;28;20040;-61
2023/02/10 19:20:53;;;;;;;5.70;2.67;;;-3.70;94.80;;;;;;20912049;28;20029;-60
2023/02/10 19:31:01;;;;;;;6.57;2.90;;;-3.70;95.20;;;;;;20910860;28;20087;-59
2023/02/10 19:41:12;;;;;;;5.10;2.60;;;-3.70;95.60;;;;;;20910257;28;20037;-59
2023/02/10 19:51:17;;;;;;;5.93;3.13;;;-3.60;93.80;;;;;;20908878;28;20091;-60
2023/02/10 20:01:19;;;;;;;7.88;2.80;;;-3.70;95.30;;;;;;20911350;28;20033;-60
2023/02/10 20:11:25;;;;;;;7.97;3.50;;;-3.70;94.80;;;;;;20906404;28;20114;-60
2023/02/10 20:21:27;;;;;;;6.85;3.08;;;-3.70;94.10;;;;;;20904878;28;20477;-60
2023/02/10 20:31:29;;;;;;;7.97;3.72;;;-3.60;94.80;;;;;;20906036;28;20028;-60
2023/02/10 20:41:31;;;;;;;7.32;2.83;;;-3.60;93.30;;;;;;20904244;28;20040;-59
2023/02/10 20:51:33;;;;;;;7.20;3.42;;;-3.30;94.10;;;;;;20904920;28;20044;-60
2023/02/10 21:01:34;;;;;;;5.38;2.90;;;-3.00;92.40;;;;;;20903148;28;20024;-60
2023/02/10 21:11:36;;;;;;;5.03;2.03;;;-3.00;92.30;;;;;;20903354;28;20040;-60
2023/02/10 21:21:39;;;;;;;5.68;1.40;;;-3.20;92.90;;;;;;20903007;28;20033;-61
2023/02/10 21:31:41;;;;;;;2.85;1.38;;;-3.20;92.90;;;;;;20901008;28;20032;-60
2023/02/10 21:41:48;;;;;;;2.05;1.00;;;-3.10;93.30;;;;;;20899016;28;20074;-60
2023/02/10 21:51:51;;;;;;;2.17;1.10;;;-3.10;92.70;;;;;;20901490;28;20021;-60
2023/02/10 22:01:53;;;;;;;4.97;1.40;;;-3.20;93.50;;;;;;20900915;28;20029;-59
2023/02/10 22:11:54;;;;;;;1.95;1.00;;;-3.20;93.30;;;;;;20902588;28;20041;-60
2023/02/10 22:21:56;;;;;;;2.90;1.10;;;-3.20;93.80;;;;;;20916689;28;20063;-59
2023/02/10 22:31:58;;;;;;;3.88;1.50;;;-3.20;93.00;;;;;;20915691;28;20029;-60
2023/02/10 22:42:00;;;;;;;3.47;1.55;;;-3.30;93.50;;;;;;20914881;28;20032;-59
2023/02/10 22:52:01;;;;;;;2.42;1.10;;;-3.40;93.10;;;;;;20914107;28;20045;-59
2023/02/10 23:02:03;;;;;;;2.75;1.10;;;-3.20;92.30;;;;;;20913607;28;20025;-59
2023/02/10 23:12:05;;;;;;;1.63;0.90;;;-3.20;91.60;;;;;;20911026;28;20048;-59
2023/02/10 23:22:06;;;;;;;2.67;1.08;;;-3.10;91.50;;;;;;20911623;28;20040;-60
2023/02/10 23:32:08;;;;;;;3.03;1.10;;;-3.10;92.00;;;;;;20910443;28;20033;-59
2023/02/10 23:42:10;;;;;;;2.75;1.02;;;-3.00;90.40;;;;;;20906125;28;20033;-60
2023/02/10 23:52:11;;;;;;;2.45;1.00;;;-2.80;90.30;;;;;;20909688;28;20094;-60
